KVUO

Details ICAO KVUO
Name Pearson Airfield
Region United States
Timezone America/Los_Angeles (UTC-8.0)
Plans Departing 7
Arriving 4
Stats Elevation 82 ft / 25 m (AMSL)
Location 45.620452° -122.656490°
Runways 1
Magnetic Variation 15.311° E
Sunrise 2017-12-17 15:47:22 UTC / 2017-12-17 07:47:22 Local
Sunset 2017-12-18 00:29:12 UTC / 2017-12-17 16:29:12 Local
Advertisement - Login to hide

Runways

ID Width Length Bearing (true) Bearing (mag) Surface Threshold Offset Overrun Length
08 59 ft / 18 m 3,268 ft / 996 m 98.30° 82.99° Asphalt 0 ft / 0 m 0 ft / 0 m
26 59 ft / 18 m 3,268 ft / 996 m 278.30° 262.99° Asphalt 738 ft / 225 m 0 ft / 0 m

Map

Weather


0- 5 10 15 20 25 30 35+ Temperature / ° C

Clouds and Precipitation
Forecast for 2017-12-17 18:00 UTC. Updated an hour ago

Ground ~20,000 ft ~40,000 ft Winds

METAR

KVUO 171253Z AUTO 00000KT 10SM BKN029 OVC035 06/05 A3027 RMK AO2 SLP249 T00610050

TAF

Not found

Frequencies

Recorded 135.12 MHz ASOS
Clearance 121.65 MHz CLNC DEL
Approach 124.35 MHz PORTLAND APP
Unicom 123.00 MHz CTAF/UNICOM
Approach 118.10 MHz PORTLAND APP
Departure 124.35 MHz PORTLAND DEP
Warning: Do not use this data for real-world aviation or navigation. No guarantee of current accuracy is given.